Terminal Aerodrome Forecast
Issued by NWS

Home | Current Version | Previous Version | Text Only | Print | Product List | Glossary On
Versions: 1 2 3 4 5 6 7 8 9 10 11 12 13 14
000
FTAK31 PAFA 301142
TAFAFA
TAF
PAFA 301142Z 3012/3118 03005KT P6SM FEW050 BKN080
     FM301300 00000KT 4SM -SN OVC025
     FM301600 00000KT 6SM -SN BKN050
     FM302000 00000KT P6SM SCT050 OVC250=

USA.gov is the U.S. government's official web portal to all federal, state and local government web resources and services.